sensor_id;sensor_type;location;lat;lon;timestamp;P1;durP1;ratioP1;P2;durP2;ratioP2
10216;SDS011;5152;59.674;16.838;2023-02-04T00:01:20;5.17;;;1.93;;
10216;SDS011;5152;59.674;16.838;2023-02-04T00:03:47;5.23;;;2.50;;
10216;SDS011;5152;59.674;16.838;2023-02-04T00:06:14;14.50;;;2.20;;
10216;SDS011;5152;59.674;16.838;2023-02-04T00:08:41;8.73;;;2.50;;
10216;SDS011;5152;59.674;16.838;2023-02-04T00:11:07;6.90;;;1.80;;
10216;SDS011;5152;59.674;16.838;2023-02-04T00:13:35;6.73;;;2.30;;
10216;SDS011;5152;59.674;16.838;2023-02-04T00:16:02;4.83;;;2.33;;
10216;SDS011;5152;59.674;16.838;2023-02-04T00:18:29;4.50;;;2.40;;
10216;SDS011;5152;59.674;16.838;2023-02-04T00:20:56;4.07;;;1.90;;
10216;SDS011;5152;59.674;16.838;2023-02-04T00:23:23;4.53;;;2.50;;
10216;SDS011;5152;59.674;16.838;2023-02-04T00:25:50;3.23;;;2.33;;
10216;SDS011;5152;59.674;16.838;2023-02-04T00:28:16;4.50;;;1.70;;
10216;SDS011;5152;59.674;16.838;2023-02-04T00:30:44;6.93;;;2.17;;
10216;SDS011;5152;59.674;16.838;2023-02-04T00:33:12;3.40;;;1.93;;
10216;SDS011;5152;59.674;16.838;2023-02-04T00:35:39;6.33;;;2.07;;
10216;SDS011;5152;59.674;16.838;2023-02-04T00:38:06;5.30;;;1.70;;
10216;SDS011;5152;59.674;16.838;2023-02-04T00:40:32;4.37;;;2.03;;
10216;SDS011;5152;59.674;16.838;2023-02-04T00:42:59;4.93;;;1.53;;
10216;SDS011;5152;59.674;16.838;2023-02-04T00:45:26;3.47;;;1.20;;
10216;SDS011;5152;59.674;16.838;2023-02-04T00:47:54;2.20;;;1.20;;
10216;SDS011;5152;59.674;16.838;2023-02-04T00:50:21;5.53;;;1.57;;
10216;SDS011;5152;59.674;16.838;2023-02-04T00:52:48;6.53;;;2.10;;
10216;SDS011;5152;59.674;16.838;2023-02-04T00:55:15;5.53;;;1.20;;
10216;SDS011;5152;59.674;16.838;2023-02-04T00:57:42;2.27;;;1.10;;
10216;SDS011;5152;59.674;16.838;2023-02-04T01:00:11;3.63;;;2.00;;
10216;SDS011;5152;59.674;16.838;2023-02-04T01:02:39;1.80;;;1.47;;
10216;SDS011;5152;59.674;16.838;2023-02-04T01:05:08;3.90;;;1.87;;
10216;SDS011;5152;59.674;16.838;2023-02-04T01:07:35;3.33;;;1.93;;
10216;SDS011;5152;59.674;16.838;2023-02-04T01:10:02;5.23;;;1.87;;
10216;SDS011;5152;59.674;16.838;2023-02-04T01:12:29;4.40;;;1.93;;
10216;SDS011;5152;59.674;16.838;2023-02-04T01:14:56;5.13;;;2.07;;
10216;SDS011;5152;59.674;16.838;2023-02-04T01:17:23;6.47;;;2.10;;
10216;SDS011;5152;59.674;16.838;2023-02-04T01:19:50;4.83;;;2.03;;
10216;SDS011;5152;59.674;16.838;2023-02-04T01:22:20;3.07;;;1.50;;
10216;SDS011;5152;59.674;16.838;2023-02-04T01:24:50;4.47;;;2.10;;
10216;SDS011;5152;59.674;16.838;2023-02-04T01:27:16;2.13;;;1.60;;
10216;SDS011;5152;59.674;16.838;2023-02-04T01:29:43;2.23;;;1.87;;
10216;SDS011;5152;59.674;16.838;2023-02-04T01:32:10;9.77;;;2.43;;
10216;SDS011;5152;59.674;16.838;2023-02-04T01:34:37;5.13;;;1.87;;
10216;SDS011;5152;59.674;16.838;2023-02-04T01:37:03;4.73;;;2.20;;
10216;SDS011;5152;59.674;16.838;2023-02-04T01:39:32;3.17;;;1.70;;
10216;SDS011;5152;59.674;16.838;2023-02-04T01:41:59;3.13;;;1.90;;
10216;SDS011;5152;59.674;16.838;2023-02-04T01:44:26;3.50;;;1.57;;
10216;SDS011;5152;59.674;16.838;2023-02-04T01:46:53;4.20;;;1.63;;
10216;SDS011;5152;59.674;16.838;2023-02-04T01:49:20;4.30;;;1.60;;
10216;SDS011;5152;59.674;16.838;2023-02-04T01:51:46;8.90;;;1.90;;
10216;SDS011;5152;59.674;16.838;2023-02-04T01:54:13;3.80;;;1.57;;
10216;SDS011;5152;59.674;16.838;2023-02-04T01:56:43;1.73;;;1.37;;
10216;SDS011;5152;59.674;16.838;2023-02-04T01:59:12;4.57;;;1.43;;
10216;SDS011;5152;59.674;16.838;2023-02-04T02:01:40;4.97;;;1.27;;
10216;SDS011;5152;59.674;16.838;2023-02-04T02:04:08;2.37;;;1.70;;
10216;SDS011;5152;59.674;16.838;2023-02-04T02:06:36;4.07;;;1.73;;
10216;SDS011;5152;59.674;16.838;2023-02-04T02:09:04;3.30;;;1.50;;
10216;SDS011;5152;59.674;16.838;2023-02-04T02:11:31;8.10;;;2.50;;
10216;SDS011;5152;59.674;16.838;2023-02-04T02:14:00;8.70;;;1.83;;
10216;SDS011;5152;59.674;16.838;2023-02-04T02:16:26;3.23;;;1.50;;
10216;SDS011;5152;59.674;16.838;2023-02-04T02:18:53;7.67;;;1.60;;
10216;SDS011;5152;59.674;16.838;2023-02-04T02:21:23;3.90;;;1.70;;
10216;SDS011;5152;59.674;16.838;2023-02-04T02:23:58;4.27;;;1.70;;
10216;SDS011;5152;59.674;16.838;2023-02-04T02:26:25;2.60;;;1.60;;
10216;SDS011;5152;59.674;16.838;2023-02-04T02:28:52;8.30;;;1.80;;
10216;SDS011;5152;59.674;16.838;2023-02-04T02:31:19;5.77;;;2.27;;
10216;SDS011;5152;59.674;16.838;2023-02-04T02:33:47;5.93;;;1.80;;
10216;SDS011;5152;59.674;16.838;2023-02-04T02:36:13;4.30;;;1.60;;
10216;SDS011;5152;59.674;16.838;2023-02-04T02:38:40;4.13;;;1.83;;
10216;SDS011;5152;59.674;16.838;2023-02-04T02:41:08;1.30;;;1.20;;
10216;SDS011;5152;59.674;16.838;2023-02-04T02:43:35;4.77;;;1.50;;
10216;SDS011;5152;59.674;16.838;2023-02-04T02:46:03;6.30;;;1.37;;
10216;SDS011;5152;59.674;16.838;2023-02-04T02:48:30;5.20;;;1.40;;
10216;SDS011;5152;59.674;16.838;2023-02-04T02:50:57;2.40;;;1.90;;
10216;SDS011;5152;59.674;16.838;2023-02-04T02:53:23;5.47;;;1.70;;
10216;SDS011;5152;59.674;16.838;2023-02-04T02:55:50;2.63;;;1.40;;
10216;SDS011;5152;59.674;16.838;2023-02-04T02:58:19;2.23;;;1.40;;
10216;SDS011;5152;59.674;16.838;2023-02-04T03:00:49;1.47;;;1.20;;
10216;SDS011;5152;59.674;16.838;2023-02-04T03:03:16;3.90;;;1.50;;
10216;SDS011;5152;59.674;16.838;2023-02-04T03:05:47;1.90;;;1.47;;
10216;SDS011;5152;59.674;16.838;2023-02-04T03:08:16;4.33;;;1.87;;
10216;SDS011;5152;59.674;16.838;2023-02-04T03:10:43;6.17;;;1.60;;
10216;SDS011;5152;59.674;16.838;2023-02-04T03:13:10;5.43;;;1.27;;
10216;SDS011;5152;59.674;16.838;2023-02-04T03:15:39;2.23;;;1.37;;
10216;SDS011;5152;59.674;16.838;2023-02-04T03:18:06;7.90;;;1.50;;
10216;SDS011;5152;59.674;16.838;2023-02-04T03:20:33;3.63;;;2.10;;
10216;SDS011;5152;59.674;16.838;2023-02-04T03:23:00;3.43;;;1.50;;
10216;SDS011;5152;59.674;16.838;2023-02-04T03:25:27;5.27;;;1.60;;
10216;SDS011;5152;59.674;16.838;2023-02-04T03:27:54;1.73;;;1.20;;
10216;SDS011;5152;59.674;16.838;2023-02-04T03:30:22;7.63;;;1.67;;
10216;SDS011;5152;59.674;16.838;2023-02-04T03:32:51;2.83;;;1.40;;
10216;SDS011;5152;59.674;16.838;2023-02-04T03:35:18;3.83;;;1.33;;
10216;SDS011;5152;59.674;16.838;2023-02-04T03:37:45;2.63;;;1.30;;
10216;SDS011;5152;59.674;16.838;2023-02-04T03:40:11;5.20;;;1.73;;
10216;SDS011;5152;59.674;16.838;2023-02-04T03:42:38;3.73;;;1.37;;
10216;SDS011;5152;59.674;16.838;2023-02-04T03:45:05;7.60;;;2.03;;
10216;SDS011;5152;59.674;16.838;2023-02-04T03:47:32;1.57;;;1.37;;
10216;SDS011;5152;59.674;16.838;2023-02-04T03:50:00;1.60;;;1.00;;
10216;SDS011;5152;59.674;16.838;2023-02-04T03:52:27;4.03;;;1.57;;
10216;SDS011;5152;59.674;16.838;2023-02-04T03:54:54;1.90;;;1.30;;
10216;SDS011;5152;59.674;16.838;2023-02-04T03:57:20;4.40;;;1.40;;
10216;SDS011;5152;59.674;16.838;2023-02-04T03:59:47;2.67;;;1.27;;
10216;SDS011;5152;59.674;16.838;2023-02-04T04:02:14;1.93;;;1.20;;
10216;SDS011;5152;59.674;16.838;2023-02-04T04:04:40;3.27;;;1.57;;
10216;SDS011;5152;59.674;16.838;2023-02-04T04:07:08;2.03;;;1.47;;
10216;SDS011;5152;59.674;16.838;2023-02-04T04:09:35;4.57;;;1.37;;
10216;SDS011;5152;59.674;16.838;2023-02-04T04:12:02;1.43;;;1.00;;
10216;SDS011;5152;59.674;16.838;2023-02-04T04:14:29;4.03;;;1.60;;
10216;SDS011;5152;59.674;16.838;2023-02-04T04:16:55;3.90;;;1.50;;
10216;SDS011;5152;59.674;16.838;2023-02-04T04:19:22;4.83;;;1.80;;
10216;SDS011;5152;59.674;16.838;2023-02-04T04:21:49;5.07;;;1.50;;
10216;SDS011;5152;59.674;16.838;2023-02-04T04:24:17;8.67;;;1.67;;
10216;SDS011;5152;59.674;16.838;2023-02-04T04:26:44;3.13;;;1.53;;
10216;SDS011;5152;59.674;16.838;2023-02-04T04:29:10;1.67;;;1.13;;
10216;SDS011;5152;59.674;16.838;2023-02-04T04:31:37;5.43;;;1.93;;
10216;SDS011;5152;59.674;16.838;2023-02-04T04:34:04;2.07;;;1.37;;
10216;SDS011;5152;59.674;16.838;2023-02-04T04:36:31;4.17;;;1.50;;
10216;SDS011;5152;59.674;16.838;2023-02-04T04:38:57;4.70;;;1.30;;
10216;SDS011;5152;59.674;16.838;2023-02-04T04:41:26;3.43;;;1.33;;
10216;SDS011;5152;59.674;16.838;2023-02-04T04:43:52;4.03;;;1.53;;
10216;SDS011;5152;59.674;16.838;2023-02-04T04:46:19;3.93;;;1.63;;
10216;SDS011;5152;59.674;16.838;2023-02-04T04:48:46;3.63;;;1.33;;
10216;SDS011;5152;59.674;16.838;2023-02-04T04:51:12;4.20;;;1.77;;
10216;SDS011;5152;59.674;16.838;2023-02-04T04:53:39;1.60;;;1.23;;
10216;SDS011;5152;59.674;16.838;2023-02-04T04:56:06;5.53;;;2.07;;
10216;SDS011;5152;59.674;16.838;2023-02-04T04:58:34;3.53;;;1.00;;
10216;SDS011;5152;59.674;16.838;2023-02-04T05:01:01;2.10;;;1.60;;
10216;SDS011;5152;59.674;16.838;2023-02-04T05:03:27;4.47;;;1.13;;
10216;SDS011;5152;59.674;16.838;2023-02-04T05:05:54;6.73;;;1.53;;
10216;SDS011;5152;59.674;16.838;2023-02-04T05:08:21;5.67;;;1.57;;
10216;SDS011;5152;59.674;16.838;2023-02-04T05:10:47;1.00;;;0.90;;
10216;SDS011;5152;59.674;16.838;2023-02-04T05:13:14;2.83;;;1.40;;
10216;SDS011;5152;59.674;16.838;2023-02-04T05:15:42;1.53;;;1.13;;
10216;SDS011;5152;59.674;16.838;2023-02-04T05:18:09;2.13;;;1.23;;
10216;SDS011;5152;59.674;16.838;2023-02-04T05:20:35;3.20;;;1.67;;
10216;SDS011;5152;59.674;16.838;2023-02-04T05:23:02;2.77;;;1.10;;
10216;SDS011;5152;59.674;16.838;2023-02-04T05:25:29;3.00;;;1.30;;
10216;SDS011;5152;59.674;16.838;2023-02-04T05:27:56;7.30;;;2.30;;
10216;SDS011;5152;59.674;16.838;2023-02-04T05:30:22;3.43;;;1.30;;
10216;SDS011;5152;59.674;16.838;2023-02-04T05:32:50;2.90;;;1.20;;
10216;SDS011;5152;59.674;16.838;2023-02-04T05:35:17;7.47;;;1.10;;
10216;SDS011;5152;59.674;16.838;2023-02-04T05:37:44;4.53;;;1.70;;
10216;SDS011;5152;59.674;16.838;2023-02-04T05:40:11;7.07;;;1.70;;
10216;SDS011;5152;59.674;16.838;2023-02-04T05:42:38;1.63;;;0.90;;
10216;SDS011;5152;59.674;16.838;2023-02-04T05:45:06;5.37;;;2.20;;
10216;SDS011;5152;59.674;16.838;2023-02-04T05:47:34;5.90;;;1.50;;
10216;SDS011;5152;59.674;16.838;2023-02-04T05:50:02;1.03;;;0.90;;
10216;SDS011;5152;59.674;16.838;2023-02-04T05:52:29;8.53;;;2.30;;
10216;SDS011;5152;59.674;16.838;2023-02-04T05:54:56;8.77;;;1.70;;
10216;SDS011;5152;59.674;16.838;2023-02-04T05:57:22;5.10;;;1.80;;
10216;SDS011;5152;59.674;16.838;2023-02-04T05:59:49;3.53;;;1.40;;
10216;SDS011;5152;59.674;16.838;2023-02-04T06:02:16;9.23;;;2.00;;
10216;SDS011;5152;59.674;16.838;2023-02-04T06:04:43;3.67;;;1.20;;
10216;SDS011;5152;59.674;16.838;2023-02-04T06:07:12;7.03;;;1.50;;
10216;SDS011;5152;59.674;16.838;2023-02-04T06:09:38;5.33;;;1.70;;
10216;SDS011;5152;59.674;16.838;2023-02-04T06:12:05;2.00;;;1.17;;
10216;SDS011;5152;59.674;16.838;2023-02-04T06:14:32;2.00;;;1.43;;
10216;SDS011;5152;59.674;16.838;2023-02-04T06:16:59;3.47;;;1.47;;
10216;SDS011;5152;59.674;16.838;2023-02-04T06:19:25;3.93;;;2.10;;
10216;SDS011;5152;59.674;16.838;2023-02-04T06:21:52;6.77;;;1.60;;
10216;SDS011;5152;59.674;16.838;2023-02-04T06:24:20;5.10;;;1.90;;
10216;SDS011;5152;59.674;16.838;2023-02-04T06:26:47;3.87;;;0.93;;
10216;SDS011;5152;59.674;16.838;2023-02-04T06:29:14;3.93;;;1.60;;
10216;SDS011;5152;59.674;16.838;2023-02-04T06:31:40;2.50;;;1.50;;
10216;SDS011;5152;59.674;16.838;2023-02-04T06:34:08;2.07;;;1.40;;
10216;SDS011;5152;59.674;16.838;2023-02-04T06:36:35;2.37;;;1.97;;
10216;SDS011;5152;59.674;16.838;2023-02-04T06:39:02;4.33;;;1.47;;
10216;SDS011;5152;59.674;16.838;2023-02-04T06:41:30;7.57;;;1.90;;
10216;SDS011;5152;59.674;16.838;2023-02-04T06:43:57;6.73;;;1.67;;
10216;SDS011;5152;59.674;16.838;2023-02-04T06:46:23;3.53;;;1.70;;
10216;SDS011;5152;59.674;16.838;2023-02-04T06:48:53;3.67;;;1.40;;
10216;SDS011;5152;59.674;16.838;2023-02-04T06:51:20;1.40;;;1.30;;
10216;SDS011;5152;59.674;16.838;2023-02-04T06:53:47;5.77;;;2.40;;
10216;SDS011;5152;59.674;16.838;2023-02-04T06:56:14;2.40;;;1.20;;
10216;SDS011;5152;59.674;16.838;2023-02-04T06:58:42;4.93;;;1.30;;
10216;SDS011;5152;59.674;16.838;2023-02-04T07:01:09;2.40;;;1.17;;
10216;SDS011;5152;59.674;16.838;2023-02-04T07:03:36;2.57;;;1.33;;
10216;SDS011;5152;59.674;16.838;2023-02-04T07:06:03;2.10;;;1.00;;
10216;SDS011;5152;59.674;16.838;2023-02-04T07:08:31;9.47;;;1.90;;
10216;SDS011;5152;59.674;16.838;2023-02-04T07:10:58;3.43;;;1.70;;
10216;SDS011;5152;59.674;16.838;2023-02-04T07:13:25;3.57;;;1.40;;
10216;SDS011;5152;59.674;16.838;2023-02-04T07:15:53;4.40;;;2.33;;
10216;SDS011;5152;59.674;16.838;2023-02-04T07:18:20;1.23;;;1.13;;
10216;SDS011;5152;59.674;16.838;2023-02-04T07:20:47;3.87;;;1.63;;
10216;SDS011;5152;59.674;16.838;2023-02-04T07:23:14;2.33;;;1.30;;
10216;SDS011;5152;59.674;16.838;2023-02-04T07:25:40;2.40;;;1.40;;
10216;SDS011;5152;59.674;16.838;2023-02-04T07:28:08;1.83;;;1.10;;
10216;SDS011;5152;59.674;16.838;2023-02-04T07:30:34;5.77;;;1.33;;
10216;SDS011;5152;59.674;16.838;2023-02-04T07:33:02;2.47;;;1.53;;
10216;SDS011;5152;59.674;16.838;2023-02-04T07:35:29;3.93;;;1.80;;
10216;SDS011;5152;59.674;16.838;2023-02-04T07:37:56;1.60;;;1.40;;
10216;SDS011;5152;59.674;16.838;2023-02-04T07:40:23;2.03;;;1.60;;
10216;SDS011;5152;59.674;16.838;2023-02-04T07:42:49;1.37;;;1.10;;
10216;SDS011;5152;59.674;16.838;2023-02-04T07:45:16;2.13;;;1.10;;
10216;SDS011;5152;59.674;16.838;2023-02-04T07:47:43;3.30;;;1.50;;
10216;SDS011;5152;59.674;16.838;2023-02-04T07:50:11;8.73;;;3.03;;
10216;SDS011;5152;59.674;16.838;2023-02-04T07:52:38;3.33;;;2.30;;
10216;SDS011;5152;59.674;16.838;2023-02-04T07:55:05;4.73;;;2.03;;
10216;SDS011;5152;59.674;16.838;2023-02-04T07:57:32;4.73;;;1.47;;
10216;SDS011;5152;59.674;16.838;2023-02-04T07:59:59;4.57;;;2.23;;
10216;SDS011;5152;59.674;16.838;2023-02-04T08:02:26;2.90;;;2.30;;
10216;SDS011;5152;59.674;16.838;2023-02-04T08:04:52;10.87;;;3.20;;
10216;SDS011;5152;59.674;16.838;2023-02-04T08:07:21;5.30;;;2.50;;
10216;SDS011;5152;59.674;16.838;2023-02-04T08:09:47;5.63;;;3.73;;
10216;SDS011;5152;59.674;16.838;2023-02-04T08:12:14;3.80;;;1.73;;
10216;SDS011;5152;59.674;16.838;2023-02-04T08:14:41;2.87;;;1.70;;
10216;SDS011;5152;59.674;16.838;2023-02-04T08:17:07;8.67;;;5.23;;
10216;SDS011;5152;59.674;16.838;2023-02-04T08:19:34;10.03;;;4.63;;
10216;SDS011;5152;59.674;16.838;2023-02-04T08:22:01;13.90;;;6.43;;
10216;SDS011;5152;59.674;16.838;2023-02-04T08:24:29;2.93;;;2.10;;
10216;SDS011;5152;59.674;16.838;2023-02-04T08:26:56;8.87;;;3.53;;
10216;SDS011;5152;59.674;16.838;2023-02-04T08:29:23;5.70;;;3.20;;
10216;SDS011;5152;59.674;16.838;2023-02-04T08:31:50;10.47;;;4.07;;
10216;SDS011;5152;59.674;16.838;2023-02-04T08:34:17;3.60;;;2.13;;
10216;SDS011;5152;59.674;16.838;2023-02-04T08:36:44;8.07;;;4.00;;
10216;SDS011;5152;59.674;16.838;2023-02-04T08:39:10;11.87;;;3.97;;
10216;SDS011;5152;59.674;16.838;2023-02-04T08:41:38;8.10;;;3.23;;
10216;SDS011;5152;59.674;16.838;2023-02-04T08:44:05;3.73;;;2.10;;
10216;SDS011;5152;59.674;16.838;2023-02-04T08:46:33;6.77;;;2.70;;
10216;SDS011;5152;59.674;16.838;2023-02-04T08:49:00;12.37;;;7.10;;
10216;SDS011;5152;59.674;16.838;2023-02-04T08:51:27;8.00;;;4.80;;
10216;SDS011;5152;59.674;16.838;2023-02-04T08:53:53;8.47;;;5.63;;
10216;SDS011;5152;59.674;16.838;2023-02-04T08:56:20;5.73;;;3.50;;
10216;SDS011;5152;59.674;16.838;2023-02-04T08:58:48;6.97;;;3.83;;
10216;SDS011;5152;59.674;16.838;2023-02-04T09:01:17;6.73;;;3.30;;
10216;SDS011;5152;59.674;16.838;2023-02-04T09:03:44;11.30;;;5.60;;
10216;SDS011;5152;59.674;16.838;2023-02-04T09:06:11;10.70;;;4.10;;
10216;SDS011;5152;59.674;16.838;2023-02-04T09:08:38;6.00;;;3.50;;
10216;SDS011;5152;59.674;16.838;2023-02-04T09:11:04;8.33;;;3.43;;
10216;SDS011;5152;59.674;16.838;2023-02-04T09:13:31;2.93;;;2.30;;
10216;SDS011;5152;59.674;16.838;2023-02-04T09:15:59;3.50;;;2.07;;
10216;SDS011;5152;59.674;16.838;2023-02-04T09:18:26;7.03;;;3.03;;
10216;SDS011;5152;59.674;16.838;2023-02-04T09:20:54;5.97;;;2.83;;
10216;SDS011;5152;59.674;16.838;2023-02-04T09:23:21;8.07;;;2.73;;
10216;SDS011;5152;59.674;16.838;2023-02-04T09:25:48;6.60;;;3.23;;
10216;SDS011;5152;59.674;16.838;2023-02-04T09:28:15;7.10;;;3.23;;
10216;SDS011;5152;59.674;16.838;2023-02-04T09:30:42;8.77;;;3.17;;
10216;SDS011;5152;59.674;16.838;2023-02-04T09:33:12;3.87;;;3.30;;
10216;SDS011;5152;59.674;16.838;2023-02-04T09:35:40;2.97;;;2.43;;
10216;SDS011;5152;59.674;16.838;2023-02-04T09:38:07;5.13;;;2.07;;
10216;SDS011;5152;59.674;16.838;2023-02-04T09:40:35;4.80;;;2.20;;
10216;SDS011;5152;59.674;16.838;2023-02-04T09:43:03;5.63;;;2.53;;
10216;SDS011;5152;59.674;16.838;2023-02-04T09:45:32;6.27;;;3.03;;
10216;SDS011;5152;59.674;16.838;2023-02-04T09:48:01;3.87;;;2.60;;
10216;SDS011;5152;59.674;16.838;2023-02-04T09:50:30;2.83;;;1.90;;
10216;SDS011;5152;59.674;16.838;2023-02-04T09:52:58;7.20;;;3.30;;
10216;SDS011;5152;59.674;16.838;2023-02-04T09:55:27;3.50;;;2.20;;
10216;SDS011;5152;59.674;16.838;2023-02-04T09:57:55;5.50;;;3.30;;
10216;SDS011;5152;59.674;16.838;2023-02-04T10:00:26;5.13;;;2.80;;
10216;SDS011;5152;59.674;16.838;2023-02-04T10:02:54;5.37;;;2.77;;
10216;SDS011;5152;59.674;16.838;2023-02-04T10:05:26;4.77;;;3.70;;
10216;SDS011;5152;59.674;16.838;2023-02-04T10:07:55;4.10;;;3.03;;
10216;SDS011;5152;59.674;16.838;2023-02-04T10:10:23;12.13;;;7.07;;
10216;SDS011;5152;59.674;16.838;2023-02-04T10:12:52;14.10;;;8.00;;
10216;SDS011;5152;59.674;16.838;2023-02-04T10:15:20;7.93;;;3.43;;
10216;SDS011;5152;59.674;16.838;2023-02-04T10:17:47;9.80;;;5.50;;
10216;SDS011;5152;59.674;16.838;2023-02-04T10:20:18;3.43;;;2.30;;
10216;SDS011;5152;59.674;16.838;2023-02-04T10:22:46;3.87;;;2.40;;
10216;SDS011;5152;59.674;16.838;2023-02-04T10:25:15;7.47;;;3.50;;
10216;SDS011;5152;59.674;16.838;2023-02-04T10:27:47;5.30;;;2.30;;
10216;SDS011;5152;59.674;16.838;2023-02-04T10:30:18;8.20;;;2.63;;
10216;SDS011;5152;59.674;16.838;2023-02-04T10:32:46;4.07;;;1.90;;
10216;SDS011;5152;59.674;16.838;2023-02-04T10:35:13;4.73;;;2.07;;
10216;SDS011;5152;59.674;16.838;2023-02-04T10:37:41;3.43;;;1.97;;
10216;SDS011;5152;59.674;16.838;2023-02-04T10:42:54;5.60;;;2.50;;
10216;SDS011;5152;59.674;16.838;2023-02-04T10:45:22;3.87;;;2.00;;
10216;SDS011;5152;59.674;16.838;2023-02-04T10:47:50;4.33;;;1.80;;
10216;SDS011;5152;59.674;16.838;2023-02-04T10:50:17;7.27;;;3.50;;
10216;SDS011;5152;59.674;16.838;2023-02-04T10:52:46;3.00;;;2.03;;
10216;SDS011;5152;59.674;16.838;2023-02-04T10:55:15;7.13;;;1.83;;
10216;SDS011;5152;59.674;16.838;2023-02-04T10:57:45;4.90;;;1.93;;
10216;SDS011;5152;59.674;16.838;2023-02-04T11:00:14;2.40;;;1.80;;
10216;SDS011;5152;59.674;16.838;2023-02-04T11:02:43;2.13;;;1.53;;
10216;SDS011;5152;59.674;16.838;2023-02-04T11:05:12;6.23;;;3.10;;
10216;SDS011;5152;59.674;16.838;2023-02-04T11:07:40;3.73;;;2.50;;
10216;SDS011;5152;59.674;16.838;2023-02-04T11:10:10;6.00;;;2.90;;
10216;SDS011;5152;59.674;16.838;2023-02-04T11:12:39;5.40;;;2.60;;
10216;SDS011;5152;59.674;16.838;2023-02-04T11:18:07;14.67;;;2.30;;
10216;SDS011;5152;59.674;16.838;2023-02-04T11:20:35;4.93;;;2.23;;
10216;SDS011;5152;59.674;16.838;2023-02-04T11:23:32;4.27;;;1.73;;
10216;SDS011;5152;59.674;16.838;2023-02-04T11:26:06;3.97;;;2.30;;
10216;SDS011;5152;59.674;16.838;2023-02-04T11:28:38;5.60;;;2.37;;
10216;SDS011;5152;59.674;16.838;2023-02-04T11:31:25;4.27;;;2.40;;
10216;SDS011;5152;59.674;16.838;2023-02-04T11:34:09;4.47;;;2.90;;
10216;SDS011;5152;59.674;16.838;2023-02-04T11:36:54;5.30;;;2.90;;
10216;SDS011;5152;59.674;16.838;2023-02-04T11:39:23;11.37;;;4.17;;
10216;SDS011;5152;59.674;16.838;2023-02-04T11:41:53;6.77;;;4.27;;
10216;SDS011;5152;59.674;16.838;2023-02-04T11:44:20;8.93;;;4.60;;
10216;SDS011;5152;59.674;16.838;2023-02-04T11:46:50;9.53;;;5.23;;
10216;SDS011;5152;59.674;16.838;2023-02-04T11:49:19;8.20;;;5.07;;
10216;SDS011;5152;59.674;16.838;2023-02-04T11:51:47;13.57;;;6.00;;
10216;SDS011;5152;59.674;16.838;2023-02-04T11:54:15;12.30;;;6.53;;
10216;SDS011;5152;59.674;16.838;2023-02-04T11:56:43;10.03;;;5.30;;
10216;SDS011;5152;59.674;16.838;2023-02-04T11:59:11;11.77;;;5.70;;
10216;SDS011;5152;59.674;16.838;2023-02-04T12:01:38;11.77;;;5.60;;
10216;SDS011;5152;59.674;16.838;2023-02-04T12:04:18;9.43;;;5.30;;
10216;SDS011;5152;59.674;16.838;2023-02-04T12:06:55;13.03;;;4.97;;
10216;SDS011;5152;59.674;16.838;2023-02-04T12:09:23;6.57;;;3.87;;
10216;SDS011;5152;59.674;16.838;2023-02-04T12:11:51;8.50;;;5.90;;
10216;SDS011;5152;59.674;16.838;2023-02-04T12:14:19;9.03;;;4.43;;
10216;SDS011;5152;59.674;16.838;2023-02-04T12:16:46;8.60;;;4.90;;
10216;SDS011;5152;59.674;16.838;2023-02-04T12:19:16;7.87;;;4.00;;
10216;SDS011;5152;59.674;16.838;2023-02-04T12:21:43;6.83;;;3.63;;
10216;SDS011;5152;59.674;16.838;2023-02-04T12:24:10;7.47;;;4.43;;
10216;SDS011;5152;59.674;16.838;2023-02-04T12:26:37;9.20;;;4.60;;
10216;SDS011;5152;59.674;16.838;2023-02-04T12:29:04;9.23;;;5.13;;
10216;SDS011;5152;59.674;16.838;2023-02-04T12:31:31;7.70;;;3.70;;
10216;SDS011;5152;59.674;16.838;2023-02-04T12:33:58;5.83;;;3.60;;
10216;SDS011;5152;59.674;16.838;2023-02-04T12:36:27;6.93;;;4.13;;
10216;SDS011;5152;59.674;16.838;2023-02-04T12:38:54;9.27;;;4.63;;
10216;SDS011;5152;59.674;16.838;2023-02-04T12:41:22;9.20;;;4.50;;
10216;SDS011;5152;59.674;16.838;2023-02-04T12:43:49;8.33;;;3.87;;
10216;SDS011;5152;59.674;16.838;2023-02-04T12:46:16;7.80;;;4.40;;
10216;SDS011;5152;59.674;16.838;2023-02-04T12:48:43;8.40;;;4.43;;
10216;SDS011;5152;59.674;16.838;2023-02-04T12:51:09;5.83;;;3.77;;
10216;SDS011;5152;59.674;16.838;2023-02-04T12:53:37;6.90;;;3.77;;
10216;SDS011;5152;59.674;16.838;2023-02-04T12:56:05;8.43;;;4.00;;
10216;SDS011;5152;59.674;16.838;2023-02-04T12:58:31;6.97;;;3.67;;
10216;SDS011;5152;59.674;16.838;2023-02-04T13:00:58;7.33;;;3.77;;
10216;SDS011;5152;59.674;16.838;2023-02-04T13:03:25;3.97;;;2.70;;
10216;SDS011;5152;59.674;16.838;2023-02-04T13:05:53;5.77;;;2.93;;
10216;SDS011;5152;59.674;16.838;2023-02-04T13:08:20;6.50;;;3.53;;
10216;SDS011;5152;59.674;16.838;2023-02-04T13:10:48;8.80;;;2.60;;
10216;SDS011;5152;59.674;16.838;2023-02-04T13:13:16;4.27;;;2.70;;
10216;SDS011;5152;59.674;16.838;2023-02-04T13:15:43;4.47;;;2.70;;
10216;SDS011;5152;59.674;16.838;2023-02-04T13:18:10;3.87;;;2.90;;
10216;SDS011;5152;59.674;16.838;2023-02-04T13:20:37;4.57;;;2.53;;
10216;SDS011;5152;59.674;16.838;2023-02-04T13:23:04;3.17;;;2.20;;
10216;SDS011;5152;59.674;16.838;2023-02-04T13:25:30;4.47;;;2.77;;
10216;SDS011;5152;59.674;16.838;2023-02-04T13:27:58;3.50;;;1.93;;
10216;SDS011;5152;59.674;16.838;2023-02-04T13:30:25;6.23;;;4.20;;
10216;SDS011;5152;59.674;16.838;2023-02-04T13:32:52;9.43;;;4.97;;
10216;SDS011;5152;59.674;16.838;2023-02-04T13:35:19;9.90;;;5.13;;
10216;SDS011;5152;59.674;16.838;2023-02-04T13:37:46;14.13;;;5.33;;
10216;SDS011;5152;59.674;16.838;2023-02-04T13:40:12;9.27;;;5.57;;
10216;SDS011;5152;59.674;16.838;2023-02-04T13:42:39;10.07;;;6.53;;
10216;SDS011;5152;59.674;16.838;2023-02-04T13:45:08;8.70;;;4.63;;
10216;SDS011;5152;59.674;16.838;2023-02-04T13:47:36;6.87;;;3.70;;
10216;SDS011;5152;59.674;16.838;2023-02-04T13:50:04;11.73;;;6.97;;
10216;SDS011;5152;59.674;16.838;2023-02-04T13:52:31;12.67;;;6.77;;
10216;SDS011;5152;59.674;16.838;2023-02-04T13:54:58;11.80;;;6.63;;
10216;SDS011;5152;59.674;16.838;2023-02-04T13:57:25;11.33;;;7.27;;
10216;SDS011;5152;59.674;16.838;2023-02-04T13:59:54;11.93;;;7.33;;
10216;SDS011;5152;59.674;16.838;2023-02-04T14:02:22;11.83;;;7.67;;
10216;SDS011;5152;59.674;16.838;2023-02-04T14:04:49;12.90;;;7.53;;
10216;SDS011;5152;59.674;16.838;2023-02-04T14:07:16;13.03;;;8.13;;
10216;SDS011;5152;59.674;16.838;2023-02-04T14:09:43;11.83;;;7.70;;
10216;SDS011;5152;59.674;16.838;2023-02-04T14:12:12;13.20;;;7.80;;
10216;SDS011;5152;59.674;16.838;2023-02-04T14:14:39;11.63;;;7.30;;
10216;SDS011;5152;59.674;16.838;2023-02-04T14:17:05;11.70;;;7.07;;
10216;SDS011;5152;59.674;16.838;2023-02-04T14:19:33;11.47;;;7.17;;
10216;SDS011;5152;59.674;16.838;2023-02-04T14:22:01;8.23;;;5.90;;
10216;SDS011;5152;59.674;16.838;2023-02-04T14:24:28;12.50;;;7.17;;
10216;SDS011;5152;59.674;16.838;2023-02-04T14:26:56;13.97;;;6.70;;
10216;SDS011;5152;59.674;16.838;2023-02-04T14:29:23;12.70;;;7.00;;
10216;SDS011;5152;59.674;16.838;2023-02-04T14:31:50;10.33;;;6.43;;
10216;SDS011;5152;59.674;16.838;2023-02-04T14:34:17;9.40;;;6.57;;
10216;SDS011;5152;59.674;16.838;2023-02-04T14:36:45;10.47;;;6.53;;
10216;SDS011;5152;59.674;16.838;2023-02-04T14:39:12;9.77;;;6.20;;
10216;SDS011;5152;59.674;16.838;2023-02-04T14:41:39;9.17;;;5.43;;
10216;SDS011;5152;59.674;16.838;2023-02-04T14:44:06;9.33;;;5.07;;
10216;SDS011;5152;59.674;16.838;2023-02-04T14:46:33;11.37;;;5.37;;
10216;SDS011;5152;59.674;16.838;2023-02-04T14:49:01;8.03;;;5.60;;
10216;SDS011;5152;59.674;16.838;2023-02-04T14:51:28;7.53;;;4.73;;
10216;SDS011;5152;59.674;16.838;2023-02-04T14:53:58;6.70;;;4.37;;